Time,TemperatureF,DewpointF,PressureIn,WindDirection,WindDirectionDegrees,WindSpeedMPH,WindSpeedGustMPH,Humidity,HourlyPrecipIn,Conditions,Clouds,dailyrainin,SoftwareType,DateUTC
2013-06-18 00:12:00,64.7,25.0,29.42,SW,229,4.0,9.0,22,0.00,,,0.00,weatherlink.com 1.10,2013-06-18 07:12:00,
2013-06-18 00:27:00,64.3,24.0,29.42,WSW,245,8.0,10.0,22,0.00,,,0.00,weatherlink.com 1.10,2013-06-18 07:27:00,
2013-06-18 00:42:00,64.5,25.0,29.41,SSW,200,7.0,10.0,22,0.00,,,0.00,weatherlink.com 1.10,2013-06-18 07:42:00,
2013-06-18 00:57:00,64.3,24.0,29.41,SW,229,8.0,10.0,22,0.00,,,0.00,weatherlink.com 1.10,2013-06-18 07:57:00,
2013-06-18 01:12:00,64.1,24.0,29.41,WSW,248,9.0,11.0,22,0.00,,,0.00,weatherlink.com 1.10,2013-06-18 08:12:00,
2013-06-18 01:27:00,63.9,24.0,29.41,SW,218,10.0,10.0,22,0.00,,,0.00,weatherlink.com 1.10,2013-06-18 08:27:00,
2013-06-18 01:42:00,63.6,24.0,29.41,WSW,253,4.0,8.0,22,0.00,,,0.00,weatherlink.com 1.10,2013-06-18 08:42:00,
2013-06-18 01:58:00,63.7,24.0,29.41,West,262,4.0,10.0,22,0.00,,,0.00,weatherlink.com 1.10,2013-06-18 08:58:00,
2013-06-18 02:13:00,62.9,24.0,29.40,WSW,257,3.0,7.0,23,0.00,,,0.00,weatherlink.com 1.10,2013-06-18 09:13:00,
2013-06-18 02:28:00,62.5,24.0,29.40,SW,229,1.0,6.0,23,0.00,,,0.00,weatherlink.com 1.10,2013-06-18 09:28:00,
2013-06-18 02:43:00,62.4,23.0,29.41,SW,218,3.0,5.0,22,0.00,,,0.00,weatherlink.com 1.10,2013-06-18 09:43:00,
2013-06-18 02:58:00,62.4,22.0,29.41,SW,224,7.0,7.0,21,0.00,,,0.00,weatherlink.com 1.10,2013-06-18 09:58:00,
2013-06-18 03:13:00,62.7,21.0,29.41,SSW,197,2.0,4.0,20,0.00,,,0.00,weatherlink.com 1.10,2013-06-18 10:13:00,
2013-06-18 03:28:00,62.6,21.0,29.40,SW,218,3.0,4.0,20,0.00,,,0.00,weatherlink.com 1.10,2013-06-18 10:28:00,
2013-06-18 03:43:00,63.0,21.0,29.41,SSW,197,1.0,3.0,20,0.00,,,0.00,weatherlink.com 1.10,2013-06-18 10:43:00,
2013-06-18 03:58:00,63.1,21.0,29.41,South,169,0.0,2.0,20,0.00,,,0.00,weatherlink.com 1.10,2013-06-18 10:58:00,
2013-06-18 04:13:00,62.2,22.0,29.41,SE,146,0.0,1.0,21,0.00,,,0.00,weatherlink.com 1.10,2013-06-18 11:13:00,
2013-06-18 04:28:00,61.7,21.0,29.41,SE,145,0.0,1.0,21,0.00,,,0.00,weatherlink.com 1.10,2013-06-18 11:28:00,
2013-06-18 04:43:00,62.2,22.0,29.42,SE,143,1.0,2.0,21,0.00,,,0.00,weatherlink.com 1.10,2013-06-18 11:43:00,
2013-06-18 04:58:00,62.2,22.0,29.42,SE,142,0.0,0.0,21,0.00,,,0.00,weatherlink.com 1.10,2013-06-18 11:58:00,
2013-06-18 05:13:00,62.6,22.0,29.42,East,99,2.0,2.0,21,0.00,,,0.00,weatherlink.com 1.10,2013-06-18 12:13:00,
2013-06-18 05:28:00,62.6,22.0,29.42,East,96,1.0,2.0,21,0.00,,,0.00,weatherlink.com 1.10,2013-06-18 12:28:00,
2013-06-18 05:43:00,62.4,24.0,29.42,East,79,2.0,2.0,23,0.00,,,0.00,weatherlink.com 1.10,2013-06-18 12:43:00,
2013-06-18 05:59:00,65.2,23.0,29.42,ENE,70,2.0,3.0,20,0.00,,,0.00,weatherlink.com 1.10,2013-06-18 12:59:00,
2013-06-18 06:13:00,65.8,24.0,29.42,ENE,64,3.0,5.0,20,0.00,,,0.00,weatherlink.com 1.10,2013-06-18 13:13:00,
2013-06-18 06:28:00,66.6,24.0,29.42,ENE,70,2.0,5.0,20,0.00,,,0.00,weatherlink.com 1.10,2013-06-18 13:28:00,
2013-06-18 06:43:00,67.3,25.0,29.43,ENE,58,4.0,5.0,20,0.00,,,0.00,weatherlink.com 1.10,2013-06-18 13:43:00,
2013-06-18 06:58:00,67.5,26.0,29.42,NE,56,4.0,6.0,21,0.00,,,0.00,weatherlink.com 1.10,2013-06-18 13:58:00,
2013-06-18 07:13:00,68.0,27.0,29.42,NE,39,4.0,6.0,21,0.00,,,0.00,weatherlink.com 1.10,2013-06-18 14:13:00,
2013-06-18 07:28:00,67.7,26.0,29.42,ENE,73,2.0,5.0,21,0.00,,,0.00,weatherlink.com 1.10,2013-06-18 14:28:00,
2013-06-18 07:43:00,67.6,27.0,29.42,East,82,3.0,5.0,22,0.00,,,0.00,weatherlink.com 1.10,2013-06-18 14:43:00,
2013-06-18 07:58:00,67.7,26.0,29.43,ENE,68,3.0,6.0,21,0.00,,,0.00,weatherlink.com 1.10,2013-06-18 14:58:00,
2013-06-18 08:13:00,69.1,27.0,29.43,NE,50,3.0,8.0,21,0.00,,,0.00,weatherlink.com 1.10,2013-06-18 15:13:00,
2013-06-18 08:28:00,68.7,26.0,29.43,East,101,6.0,6.0,20,0.00,,,0.00,weatherlink.com 1.10,2013-06-18 15:28:00,
2013-06-18 08:43:00,69.7,27.0,29.43,ENE,70,3.0,6.0,20,0.00,,,0.00,weatherlink.com 1.10,2013-06-18 15:43:00,
2013-06-18 08:58:00,69.9,27.0,29.43,NE,55,3.0,9.0,20,0.00,,,0.00,weatherlink.com 1.10,2013-06-18 15:58:00,
2013-06-18 09:13:00,71.2,27.0,29.43,ENE,65,3.0,5.0,19,0.00,,,0.00,weatherlink.com 1.10,2013-06-18 16:13:00,
2013-06-18 09:28:00,71.5,26.0,29.43,ENE,65,4.0,11.0,18,0.00,,,0.00,weatherlink.com 1.10,2013-06-18 16:28:00,
2013-06-18 09:43:00,72.2,26.0,29.43,ENE,68,4.0,7.0,18,0.00,,,0.00,weatherlink.com 1.10,2013-06-18 16:43:00,
2013-06-18 09:58:00,72.2,25.0,29.44,NNW,347,4.0,8.0,17,0.00,,,0.00,weatherlink.com 1.10,2013-06-18 16:58:00,
2013-06-18 10:13:00,72.6,24.0,29.44,SW,229,5.0,10.0,16,0.00,,,0.00,weatherlink.com 1.10,2013-06-18 17:13:00,
2013-06-18 10:28:00,73.8,26.0,29.44,East,79,5.0,7.0,17,0.00,,,0.00,weatherlink.com 1.10,2013-06-18 17:28:00,
2013-06-18 10:43:00,73.9,25.0,29.44,ENE,63,3.0,7.0,16,0.00,,,0.00,weatherlink.com 1.10,2013-06-18 17:43:00,
2013-06-18 10:58:00,74.1,24.0,29.44,ENE,74,2.0,10.0,15,0.00,,,0.00,weatherlink.com 1.10,2013-06-18 17:58:00,
2013-06-18 11:13:00,74.0,23.0,29.44,ESE,123,1.0,8.0,15,0.00,,,0.00,weatherlink.com 1.10,2013-06-18 18:13:00,
2013-06-18 11:28:00,74.2,24.0,29.44,East,86,2.0,11.0,15,0.00,,,0.00,weatherlink.com 1.10,2013-06-18 18:28:00,
2013-06-18 11:43:00,74.4,22.0,29.44,WNW,299,4.0,9.0,14,0.00,,,0.00,weatherlink.com 1.10,2013-06-18 18:43:00,
2013-06-18 11:58:00,73.6,16.0,29.44,SW,236,8.0,12.0,11,0.00,,,0.00,weatherlink.com 1.10,2013-06-18 18:58:00,
2013-06-18 12:13:00,76.1,18.0,29.43,South,186,3.0,6.0,11,0.00,,,0.00,weatherlink.com 1.10,2013-06-18 19:13:00,
2013-06-18 12:28:00,74.9,17.0,29.43,West,273,6.0,9.0,11,0.00,,,0.00,weatherlink.com 1.10,2013-06-18 19:28:00,
2013-06-18 12:43:00,74.9,17.0,29.43,West,259,2.0,12.0,11,0.00,,,0.00,weatherlink.com 1.10,2013-06-18 19:43:00,
2013-06-18 12:58:00,76.0,20.0,29.43,SSE,165,7.0,13.0,12,0.00,,,0.00,weatherlink.com 1.10,2013-06-18 19:58:00,
2013-06-18 13:13:00,75.6,13.0,29.42,NNW,344,5.0,21.0,9,0.00,,,0.00,weatherlink.com 1.10,2013-06-18 20:13:00,
2013-06-18 13:28:00,75.9,10.0,29.42,SW,226,5.0,12.0,8,0.00,,,0.00,weatherlink.com 1.10,2013-06-18 20:28:00,
2013-06-18 13:43:00,74.6,19.0,29.42,WSW,242,10.0,16.0,12,0.00,,,0.00,weatherlink.com 1.10,2013-06-18 20:43:00,
2013-06-18 13:58:00,75.0,17.0,29.41,West,269,5.0,19.0,11,0.00,,,0.00,weatherlink.com 1.10,2013-06-18 20:58:00,
2013-06-18 14:13:00,74.9,15.0,29.41,ENE,62,4.0,14.0,10,0.00,,,0.00,weatherlink.com 1.10,2013-06-18 21:13:00,
2013-06-18 14:28:00,76.8,16.0,29.41,West,269,10.0,13.0,10,0.00,,,0.00,weatherlink.com 1.10,2013-06-18 21:28:00,
2013-06-18 14:43:00,75.8,10.0,29.41,SW,232,9.0,19.0,8,0.00,,,0.00,weatherlink.com 1.10,2013-06-18 21:43:00,
2013-06-18 14:58:00,75.5,10.0,29.41,SW,235,10.0,15.0,8,0.00,,,0.00,weatherlink.com 1.10,2013-06-18 21:58:00,
2013-06-18 15:14:00,75.7,13.0,29.40,SW,234,7.0,15.0,9,0.00,,,0.00,weatherlink.com 1.10,2013-06-18 22:14:00,
2013-06-18 15:28:00,76.1,13.0,29.40,WNW,290,6.0,16.0,9,0.00,,,0.00,weatherlink.com 1.10,2013-06-18 22:28:00,
2013-06-18 15:43:00,77.5,17.0,29.39,SE,140,4.0,11.0,10,0.00,,,0.00,weatherlink.com 1.10,2013-06-18 22:43:00,
2013-06-18 15:59:00,76.7,8.0,29.39,West,273,11.0,16.0,7,0.00,,,0.00,weatherlink.com 1.10,2013-06-18 22:59:00,
2013-06-18 16:14:00,77.2,1.0,29.38,SE,144,10.0,11.0,5,0.00,,,0.00,weatherlink.com 1.10,2013-06-18 23:14:00,
2013-06-18 16:29:00,78.1,2.0,29.38,West,266,3.0,12.0,5,0.00,,,0.00,weatherlink.com 1.10,2013-06-18 23:29:00,
2013-06-18 16:44:00,78.1,2.0,29.37,West,271,3.0,11.0,5,0.00,,,0.00,weatherlink.com 1.10,2013-06-18 23:44:00,
2013-06-18 16:59:00,76.6,-18.0,29.37,WSW,239,5.0,15.0,2,0.00,,,0.00,weatherlink.com 1.10,2013-06-18 23:59:00,
2013-06-18 17:14:00,77.0,-4.0,29.37,West,278,1.0,12.0,4,0.00,,,0.00,weatherlink.com 1.10,2013-06-19 00:14:00,
2013-06-18 17:29:00,76.7,1.0,29.37,North,1,3.0,11.0,5,0.00,,,0.00,weatherlink.com 1.10,2013-06-19 00:29:00,
2013-06-18 17:44:00,76.0,-11.0,29.37,WSW,253,11.0,14.0,3,0.00,,,0.00,weatherlink.com 1.10,2013-06-19 00:44:00,
2013-06-18 17:59:00,75.7,0.0,29.37,SW,226,9.0,14.0,5,0.00,,,0.00,weatherlink.com 1.10,2013-06-19 00:59:00,
2013-06-18 18:14:00,75.3,-5.0,29.37,South,169,5.0,13.0,4,0.00,,,0.00,weatherlink.com 1.10,2013-06-19 01:14:00,
2013-06-18 18:29:00,74.9,-1.0,29.37,WNW,288,6.0,12.0,5,0.00,,,0.00,weatherlink.com 1.10,2013-06-19 01:29:00,
2013-06-18 18:44:00,74.2,3.0,29.37,West,276,8.0,11.0,6,0.00,,,0.00,weatherlink.com 1.10,2013-06-19 01:44:00,
2013-06-18 18:59:00,73.0,-7.0,29.37,SW,226,6.0,15.0,4,0.00,,,0.00,weatherlink.com 1.10,2013-06-19 01:59:00,
2013-06-18 19:14:00,71.9,1.0,29.36,WSW,256,13.0,14.0,6,0.00,,,0.00,weatherlink.com 1.10,2013-06-19 02:14:00,
2013-06-18 19:30:00,70.5,-9.0,29.36,SW,228,9.0,15.0,4,0.00,,,0.00,weatherlink.com 1.10,2013-06-19 02:30:00,
2013-06-18 19:45:00,69.2,-10.0,29.36,West,267,10.0,15.0,4,0.00,,,0.00,weatherlink.com 1.10,2013-06-19 02:45:00,
2013-06-18 20:00:00,68.8,-10.0,29.36,West,267,14.0,19.0,4,0.00,,,0.00,weatherlink.com 1.10,2013-06-19 03:00:00,
2013-06-18 20:15:00,68.6,-10.0,29.35,SW,221,11.0,22.0,4,0.00,,,0.00,weatherlink.com 1.10,2013-06-19 03:15:00,
2013-06-18 20:30:00,68.1,-10.0,29.36,West,263,12.0,20.0,4,0.00,,,0.00,weatherlink.com 1.10,2013-06-19 03:30:00,
2013-06-18 20:45:00,68.1,-10.0,29.36,SW,229,11.0,21.0,4,0.00,,,0.00,weatherlink.com 1.10,2013-06-19 03:45:00,
2013-06-18 21:00:00,67.8,-11.0,29.36,South,191,5.0,19.0,4,0.00,,,0.00,weatherlink.com 1.10,2013-06-19 04:00:00,
2013-06-18 21:15:00,67.7,-6.0,29.37,West,281,9.0,24.0,5,0.00,,,0.00,weatherlink.com 1.10,2013-06-19 04:15:00,
2013-06-18 21:30:00,67.7,-6.0,29.37,West,264,14.0,25.0,5,0.00,,,0.00,weatherlink.com 1.10,2013-06-19 04:30:00,
2013-06-18 21:45:00,67.4,-6.0,29.37,West,266,14.0,24.0,5,0.00,,,0.00,weatherlink.com 1.10,2013-06-19 04:45:00,
2013-06-18 22:00:00,66.9,-7.0,29.37,WNW,290,7.0,24.0,5,0.00,,,0.00,weatherlink.com 1.10,2013-06-19 05:00:00,
2013-06-18 22:15:00,66.8,-7.0,29.37,West,277,14.0,23.0,5,0.00,,,0.00,weatherlink.com 1.10,2013-06-19 05:15:00,
2013-06-18 22:30:00,66.8,-11.0,29.37,WNW,295,12.0,18.0,4,0.00,,,0.00,weatherlink.com 1.10,2013-06-19 05:30:00,
2013-06-18 22:46:00,66.5,-12.0,29.37,West,266,6.0,26.0,4,0.00,,,0.00,weatherlink.com 1.10,2013-06-19 05:46:00,
2013-06-18 23:01:00,65.9,-4.0,29.37,WSW,252,14.0,15.0,6,0.00,,,0.00,weatherlink.com 1.10,2013-06-19 06:01:00,
2013-06-18 23:16:00,65.5,-1.0,29.37,WSW,256,7.0,17.0,7,0.00,,,0.00,weatherlink.com 1.10,2013-06-19 06:16:00,
2013-06-18 23:31:00,65.0,2.0,29.37,West,281,4.0,14.0,8,0.00,,,0.00,weatherlink.com 1.10,2013-06-19 06:31:00,
2013-06-18 23:46:00,65.5,5.0,29.36,WSW,250,16.0,16.0,9,0.00,,,0.00,weatherlink.com 1.10,2013-06-19 06:46:00,